createdAt,value
2022-08-25T00:02:41.787Z,17.081299
2022-08-25T00:06:06.966Z,17.121582
2022-08-25T00:09:32.189Z,17.121582
2022-08-25T00:12:57.448Z,17.141724
2022-08-25T00:16:22.765Z,17.141724
2022-08-25T00:19:47.928Z,17.151794
2022-08-25T00:23:13.170Z,17.111511
2022-08-25T00:26:38.435Z,17.071228
2022-08-25T00:30:03.662Z,17.030945
2022-08-25T00:33:28.907Z,17.010803
2022-08-25T00:36:54.181Z,16.960449
2022-08-25T00:40:19.427Z,16.889954
2022-08-25T00:43:44.660Z,16.889954
2022-08-25T00:47:09.899Z,16.879883
2022-08-25T00:50:35.145Z,16.889954
2022-08-25T00:54:00.347Z,16.879883
2022-08-25T00:57:27.177Z,16.84967
2022-08-25T01:00:50.811Z,16.84967
2022-08-25T01:04:16.051Z,16.748962
2022-08-25T01:07:41.301Z,16.668396
2022-08-25T01:11:06.538Z,16.577759
2022-08-25T01:14:31.762Z,16.607971
2022-08-25T01:17:56.989Z,16.607971
2022-08-25T01:21:22.228Z,16.628113
2022-08-25T01:24:47.474Z,16.658325
2022-08-25T01:28:12.711Z,16.698608
2022-08-25T01:31:38.027Z,16.708679
2022-08-25T01:35:03.191Z,16.708679
2022-08-25T01:38:28.418Z,16.668396
2022-08-25T01:41:53.691Z,16.678467
2022-08-25T01:45:18.918Z,16.638184
2022-08-25T01:48:44.121Z,16.628113
2022-08-25T01:52:09.371Z,16.658325
2022-08-25T01:55:34.594Z,16.658325
2022-08-25T01:58:59.824Z,16.628113
2022-08-25T02:02:26.187Z,16.638184
2022-08-25T02:05:50.295Z,16.577759
2022-08-25T02:09:15.533Z,16.577759
2022-08-25T02:12:40.750Z,16.517334
2022-08-25T02:16:05.992Z,16.517334
2022-08-25T02:19:31.254Z,16.527405
2022-08-25T02:22:56.672Z,16.497192
2022-08-25T02:26:21.740Z,16.477051
2022-08-25T02:29:46.960Z,16.456909
2022-08-25T02:33:12.197Z,16.426697
2022-08-25T02:36:37.427Z,16.386414
2022-08-25T02:40:02.742Z,16.406555
2022-08-25T02:43:27.948Z,16.34613
2022-08-25T02:46:53.170Z,16.295776
2022-08-25T02:50:18.416Z,16.265564
2022-08-25T02:53:43.633Z,16.265564
2022-08-25T02:57:08.845Z,16.295776
2022-08-25T03:00:34.078Z,16.295776
2022-08-25T03:03:59.353Z,16.305847
2022-08-25T03:07:24.800Z,16.305847
2022-08-25T03:10:49.760Z,16.305847
2022-08-25T03:14:15.005Z,16.275635
2022-08-25T03:17:40.243Z,16.265564
2022-08-25T03:21:05.487Z,16.265564
2022-08-25T03:24:30.728Z,16.245422
2022-08-25T03:27:55.960Z,16.235352
2022-08-25T03:31:21.237Z,16.265564
2022-08-25T03:34:46.435Z,16.245422
2022-08-25T03:38:11.681Z,16.245422
2022-08-25T03:41:37.922Z,16.225281
2022-08-25T03:45:03.139Z,16.225281
2022-08-25T03:48:28.378Z,16.174927
2022-08-25T03:51:53.595Z,16.205139
2022-08-25T03:55:18.866Z,16.154785
2022-08-25T03:58:44.124Z,16.154785
2022-08-25T04:02:09.417Z,16.114502
2022-08-25T04:05:34.613Z,16.124573
2022-08-25T04:08:59.880Z,16.08429
2022-08-25T04:12:25.115Z,16.074219
2022-08-25T04:15:50.343Z,16.054077
2022-08-25T04:19:15.584Z,16.074219
2022-08-25T04:22:40.845Z,16.09436
2022-08-25T04:26:06.058Z,16.114502
2022-08-25T04:29:31.275Z,16.08429
2022-08-25T04:32:56.532Z,16.124573
2022-08-25T04:36:21.764Z,16.144714
2022-08-25T04:39:47.087Z,16.154785
2022-08-25T04:43:12.268Z,16.174927
2022-08-25T04:46:37.517Z,16.225281
2022-08-25T04:50:02.781Z,16.235352
2022-08-25T04:53:28.011Z,16.295776
2022-08-25T04:56:54.008Z,16.305847
2022-08-25T05:00:18.458Z,16.386414
2022-08-25T05:03:43.708Z,16.426697
2022-08-25T05:07:08.958Z,16.456909
2022-08-25T05:10:34.180Z,16.497192
2022-08-25T05:13:59.442Z,16.567688
2022-08-25T05:17:24.684Z,16.557617
2022-08-25T05:20:49.911Z,16.628113
2022-08-25T05:24:15.141Z,16.708679
2022-08-25T05:27:40.400Z,16.819458
2022-08-25T05:31:05.706Z,16.879883
2022-08-25T05:34:30.894Z,16.940308
2022-08-25T05:37:56.146Z,17.010803
2022-08-25T05:41:21.401Z,17.151794
2022-08-25T05:44:46.621Z,17.373352
2022-08-25T05:48:11.837Z,17.564697
2022-08-25T05:51:37.090Z,17.715759
2022-08-25T05:55:02.306Z,17.866821
2022-08-25T05:58:27.556Z,17.987671
2022-08-25T06:01:52.780Z,18.118591
2022-08-25T06:05:18.006Z,18.199158
2022-08-25T06:08:43.246Z,18.320007
2022-08-25T06:12:08.488Z,18.440857
2022-08-25T06:15:33.693Z,18.521423
2022-08-25T06:18:58.942Z,18.652344
2022-08-25T06:22:24.181Z,18.763123
2022-08-25T06:25:49.428Z,18.904114
2022-08-25T06:29:14.652Z,19.055176
2022-08-25T06:32:39.879Z,19.125671
2022-08-25T06:36:05.113Z,19.186096
2022-08-25T06:39:30.348Z,19.286804
2022-08-25T06:42:55.584Z,19.327087
2022-08-25T06:46:20.873Z,19.397583
2022-08-25T06:49:46.049Z,19.478149
2022-08-25T06:53:11.319Z,19.498291
2022-08-25T06:56:36.569Z,19.548645
2022-08-25T07:00:01.813Z,19.558716
2022-08-25T07:03:27.055Z,19.619141
2022-08-25T07:06:52.298Z,19.619141
2022-08-25T07:10:19.449Z,19.729919
2022-08-25T07:13:42.794Z,19.73999
2022-08-25T07:17:10.577Z,19.800415
2022-08-25T07:20:33.296Z,19.800415
2022-08-25T07:23:58.540Z,19.840698
2022-08-25T07:27:23.801Z,19.880981
2022-08-25T07:30:51.660Z,19.921265
2022-08-25T07:34:14.279Z,20.021973
2022-08-25T07:37:48.685Z,20.102539
2022-08-25T07:41:04.779Z,20.132751
2022-08-25T07:44:30.024Z,20.173035
2022-08-25T07:47:55.263Z,20.233459
2022-08-25T07:51:20.547Z,20.293884
2022-08-25T07:54:45.754Z,20.334167
2022-08-25T07:58:11.014Z,20.36438
2022-08-25T08:01:38.556Z,20.424805
2022-08-25T08:05:01.751Z,20.4953
2022-08-25T08:08:27.011Z,20.545654
2022-08-25T08:11:54.066Z,20.606079
2022-08-25T08:15:17.523Z,20.656433
2022-08-25T08:18:42.768Z,20.757141
2022-08-25T08:22:07.998Z,20.797424
2022-08-25T08:25:33.254Z,20.86792
2022-08-25T08:28:58.470Z,20.938416
2022-08-25T08:32:30.695Z,21.029053
2022-08-25T08:35:48.947Z,21.220398
2022-08-25T08:39:14.182Z,21.290894
2022-08-25T08:42:39.440Z,21.311035
2022-08-25T08:46:04.717Z,21.311035
2022-08-25T08:49:29.896Z,21.351318
2022-08-25T08:52:55.123Z,21.49231
2022-08-25T08:56:20.361Z,21.562805
2022-08-25T08:59:45.600Z,21.673584
2022-08-25T09:03:10.844Z,21.774292
2022-08-25T09:06:36.074Z,21.834717
2022-08-25T09:10:01.309Z,21.834717
2022-08-25T09:13:26.549Z,21.834717
2022-08-25T09:16:51.785Z,21.834717
2022-08-25T09:20:18.447Z,22.015991
2022-08-25T09:23:42.266Z,22.207336
2022-08-25T09:27:07.477Z,22.297974
2022-08-25T09:30:32.715Z,22.328186
2022-08-25T09:33:57.955Z,22.449036
2022-08-25T09:37:23.142Z,22.449036
2022-08-25T09:40:48.385Z,22.449036
2022-08-25T09:44:13.696Z,22.600098
2022-08-25T09:47:38.851Z,22.942505
2022-08-25T09:51:04.068Z,23.013
2022-08-25T09:54:33.949Z,23.073425
2022-08-25T09:57:54.475Z,23.284912
2022-08-25T10:01:20.675Z,23.355408
2022-08-25T10:04:44.914Z,23.50647
2022-08-25T10:08:10.108Z,23.50647
2022-08-25T10:11:35.318Z,23.425903
2022-08-25T10:15:00.528Z,23.415833
2022-08-25T10:18:26.145Z,23.38562
2022-08-25T10:21:50.929Z,23.415833
2022-08-25T10:25:16.150Z,23.476257
2022-08-25T10:28:41.386Z,23.536682
2022-08-25T10:32:10.285Z,23.536682
2022-08-25T10:35:31.790Z,23.566895
2022-08-25T10:38:57.067Z,23.728027
2022-08-25T10:42:25.402Z,23.969727
2022-08-25T10:45:47.607Z,24.120789
2022-08-25T10:49:12.828Z,24.302063
2022-08-25T10:52:38.034Z,24.463196
2022-08-25T10:56:03.259Z,24.604187
2022-08-25T10:59:28.506Z,24.553833
2022-08-25T11:02:53.744Z,24.453125
2022-08-25T11:06:18.971Z,24.302063
2022-08-25T11:09:44.196Z,24.251709
2022-08-25T11:13:11.195Z,24.181213
2022-08-25T11:16:34.698Z,24.181213
2022-08-25T11:19:59.910Z,24.251709
2022-08-25T11:23:25.169Z,24.372559
2022-08-25T11:26:50.410Z,24.432983
2022-08-25T11:30:15.637Z,24.453125
2022-08-25T11:33:40.875Z,24.453125
2022-08-25T11:37:06.102Z,24.3927
2022-08-25T11:40:31.377Z,24.322205
2022-08-25T11:43:56.583Z,24.402771
2022-08-25T11:47:21.853Z,24.402771
2022-08-25T11:50:47.059Z,24.3927
2022-08-25T11:54:12.292Z,24.372559
2022-08-25T11:57:37.543Z,24.473267
2022-08-25T12:01:03.091Z,24.453125
2022-08-25T12:04:28.461Z,24.432983
2022-08-25T12:07:53.573Z,24.352417
2022-08-25T12:11:18.783Z,24.402771
2022-08-25T12:14:44.034Z,24.402771
2022-08-25T12:18:09.594Z,24.372559
2022-08-25T12:21:34.510Z,24.312134
2022-08-25T12:24:59.787Z,24.322205
2022-08-25T12:28:25.052Z,24.312134
2022-08-25T12:31:50.314Z,24.281921
2022-08-25T12:35:15.563Z,24.211426
2022-08-25T12:38:43.243Z,24.221497
2022-08-25T12:42:06.120Z,24.181213
2022-08-25T12:45:31.373Z,24.211426
2022-08-25T12:48:56.625Z,24.271851
2022-08-25T12:52:21.874Z,24.372559
2022-08-25T12:55:47.121Z,24.352417
2022-08-25T12:59:12.382Z,24.342346
2022-08-25T13:02:37.732Z,24.281921
2022-08-25T13:06:02.879Z,24.271851
2022-08-25T13:09:28.137Z,24.181213
2022-08-25T13:12:53.403Z,24.100647
2022-08-25T13:16:18.679Z,24.030151
2022-08-25T13:19:43.893Z,23.969727
2022-08-25T13:23:09.194Z,23.929443
2022-08-25T13:26:34.438Z,23.939514
2022-08-25T13:29:59.705Z,23.949585
2022-08-25T13:33:25.043Z,23.979797
2022-08-25T13:36:52.099Z,24.080505
2022-08-25T13:40:15.506Z,24.151001
2022-08-25T13:43:40.961Z,24.322205
2022-08-25T13:47:06.011Z,24.453125
2022-08-25T13:50:31.287Z,24.453125
2022-08-25T13:53:56.608Z,24.64447
2022-08-25T13:57:21.913Z,24.694824
2022-08-25T14:00:47.325Z,24.775391
2022-08-25T14:04:12.450Z,24.866028
2022-08-25T14:07:37.692Z,24.996948
2022-08-25T14:11:02.968Z,25.137939
2022-08-25T14:14:28.216Z,25.14801
2022-08-25T14:17:53.486Z,25.127869
2022-08-25T14:21:19.705Z,25.057373
2022-08-25T14:24:44.969Z,24.976807
2022-08-25T14:28:16.424Z,24.906311
2022-08-25T15:05:07.839Z,24.64447
2022-08-25T15:08:33.518Z,24.684753
2022-08-25T15:11:58.311Z,24.714966
2022-08-25T15:15:23.546Z,24.76532
2022-08-25T15:18:48.790Z,24.805603
2022-08-25T15:22:14.018Z,24.805603
2022-08-25T15:25:39.456Z,24.775391
2022-08-25T15:29:04.752Z,24.694824
2022-08-25T15:32:29.989Z,24.674683
2022-08-25T15:35:55.220Z,24.604187
2022-08-25T15:39:20.450Z,24.533691
2022-08-25T15:42:46.006Z,24.493408
2022-08-25T15:46:10.920Z,24.453125
2022-08-25T15:49:36.262Z,24.432983
2022-08-25T15:53:01.718Z,24.3927
2022-08-25T15:56:27.218Z,24.342346
2022-08-25T15:59:52.264Z,24.312134
2022-08-25T16:03:17.604Z,24.271851
2022-08-25T16:06:42.979Z,24.221497
2022-08-25T16:10:08.302Z,24.161072
2022-08-25T16:13:33.594Z,24.151001
2022-08-25T16:16:59.686Z,24.130859
2022-08-25T16:20:24.205Z,24.090576
2022-08-25T16:23:49.476Z,24.050293
2022-08-25T16:27:14.735Z,24.020081
2022-08-25T16:30:40.069Z,23.939514
2022-08-25T16:34:05.412Z,23.899231
2022-08-25T16:37:30.782Z,23.869019
2022-08-25T16:40:56.171Z,23.848877
2022-08-25T16:44:22.678Z,23.828735
2022-08-25T16:47:46.787Z,23.788452
2022-08-25T16:51:12.035Z,23.728027
2022-08-25T16:54:37.306Z,23.717957
2022-08-25T16:58:02.595Z,23.657532
2022-08-25T17:01:27.799Z,23.627319
2022-08-25T17:04:53.036Z,23.566895
2022-08-25T17:08:18.269Z,23.566895
2022-08-25T17:11:43.525Z,23.536682
2022-08-25T17:15:08.755Z,23.50647
2022-08-25T17:18:33.983Z,23.50647
2022-08-25T17:21:59.215Z,23.476257
2022-08-25T17:25:24.445Z,23.456116
2022-08-25T17:28:49.664Z,23.476257
2022-08-25T17:32:14.925Z,23.425903
2022-08-25T17:35:40.147Z,23.415833
2022-08-25T17:39:05.394Z,23.375549
2022-08-25T17:42:30.607Z,23.325195
2022-08-25T17:45:55.860Z,23.234558
2022-08-25T17:49:25.361Z,23.224487
2022-08-25T17:52:50.661Z,23.164062
2022-08-25T17:56:15.974Z,23.123779
2022-08-25T17:59:41.183Z,23.023071
2022-08-25T18:03:06.447Z,23.00293
2022-08-25T18:06:31.951Z,22.942505
2022-08-25T18:09:57.311Z,22.861938
2022-08-25T18:13:25.804Z,22.821655
2022-08-25T18:16:51.080Z,22.75116
2022-08-25T18:20:16.394Z,22.700806
2022-08-25T18:23:41.661Z,22.640381
2022-08-25T18:27:06.955Z,22.610168
2022-08-25T18:30:32.208Z,22.569885
2022-08-25T18:33:57.448Z,22.519531
2022-08-25T18:37:22.729Z,22.50946
2022-08-25T18:40:48.849Z,22.469177
2022-08-25T18:44:15.548Z,22.469177
2022-08-25T18:47:39.496Z,22.368469
2022-08-25T18:51:04.820Z,22.368469
2022-08-25T18:54:30.102Z,22.328186
2022-08-25T18:57:55.366Z,22.277832
2022-08-25T19:01:20.830Z,22.267761
2022-08-25T19:04:45.881Z,22.237549
2022-08-25T19:11:40.669Z,22.197266
2022-08-25T19:15:05.921Z,22.177124
2022-08-25T19:18:50.539Z,22.167053
2022-08-25T19:23:13.227Z,22.116699
2022-08-25T19:27:31.567Z,22.066345
2022-08-25T19:32:21.188Z,22.015991
2022-08-25T19:36:34.567Z,21.985779
2022-08-25T19:40:38.146Z,21.955566
2022-08-25T19:44:32.164Z,21.955566
2022-08-25T19:49:09.809Z,21.915283
2022-08-25T19:53:41.352Z,21.875
2022-08-25T19:57:07.845Z,21.864929
2022-08-25T20:00:32.586Z,21.864929
2022-08-25T20:03:57.806Z,21.834717
2022-08-25T20:07:23.689Z,21.804504
2022-08-25T20:10:48.242Z,21.804504
2022-08-25T20:14:13.459Z,21.774292
2022-08-25T20:17:38.677Z,21.74408
2022-08-25T20:21:03.907Z,21.723938
2022-08-25T20:24:29.146Z,21.683655
2022-08-25T20:27:54.369Z,21.653442
2022-08-25T20:31:19.622Z,21.62323
2022-08-25T20:38:10.290Z,21.562805
2022-08-25T20:41:35.698Z,21.542664
2022-08-25T20:45:00.501Z,21.462097
2022-08-25T20:48:26.850Z,21.341248
2022-08-25T20:51:50.917Z,21.139832
2022-08-25T20:55:17.660Z,21.029053
2022-08-25T20:58:41.385Z,20.86792
2022-08-25T21:02:06.617Z,20.737
2022-08-25T21:05:31.831Z,20.636292
2022-08-25T21:08:57.076Z,20.505371
2022-08-25T21:12:22.309Z,20.354309
2022-08-25T21:15:47.555Z,20.283813
2022-08-25T21:19:12.780Z,20.233459
2022-08-25T21:22:38.017Z,20.132751
2022-08-25T21:26:03.260Z,20.052185
2022-08-25T21:29:28.779Z,19.981689
2022-08-25T21:32:54.083Z,19.911194
2022-08-25T21:36:18.943Z,19.770203
2022-08-25T21:39:44.172Z,19.548645
2022-08-25T21:43:09.487Z,19.468079
2022-08-25T21:46:34.657Z,19.387512
2022-08-25T21:49:59.851Z,19.387512
2022-08-25T21:53:25.077Z,19.468079
2022-08-25T21:56:50.302Z,19.578857
2022-08-25T22:00:15.551Z,19.588928
2022-08-25T22:03:40.799Z,19.649353
2022-08-25T22:07:06.023Z,19.659424
2022-08-25T22:10:31.271Z,19.679565
2022-08-25T22:13:56.509Z,19.629211
2022-08-25T22:17:24.339Z,19.588928
2022-08-25T22:20:46.957Z,19.498291
2022-08-25T22:24:12.191Z,19.367371
2022-08-25T22:27:37.451Z,19.317017
2022-08-25T22:31:02.743Z,19.327087
2022-08-25T22:34:30.403Z,19.306946
2022-08-25T22:37:53.163Z,19.306946
2022-08-25T22:41:18.954Z,19.317017
2022-08-25T22:44:43.627Z,19.317017
2022-08-25T22:48:08.847Z,19.286804
2022-08-25T22:51:34.069Z,19.276733
2022-08-25T22:54:59.292Z,19.256592
2022-08-25T22:58:24.535Z,19.256592
2022-08-25T23:01:49.760Z,19.286804
2022-08-25T23:05:15.103Z,19.306946
2022-08-25T23:08:40.936Z,19.256592
2022-08-25T23:12:05.507Z,19.186096
2022-08-25T23:15:30.733Z,19.125671
2022-08-25T23:18:55.980Z,19.10553
2022-08-25T23:22:21.229Z,19.10553
2022-08-25T23:25:46.449Z,19.125671
2022-08-25T23:29:17.666Z,19.075317
2022-08-25T23:32:36.901Z,19.10553
2022-08-25T23:36:02.125Z,19.075317
2022-08-25T23:39:27.367Z,19.125671
2022-08-25T23:42:52.576Z,19.075317
2022-08-25T23:46:17.762Z,19.035034
2022-08-25T23:49:42.977Z,18.994751
2022-08-25T23:53:08.214Z,18.98468
2022-08-25T23:56:33.313Z,18.924255
2022-08-25T23:59:58.503Z,18.914185
